PAGS

Details ICAO PAGS (GST)
Name GUSTAVUS
Region USA (Alaska)
Timezone America/Juneau (UTC-8.0)
Plans Departing 41
Arriving 43
Stats Elevation 34 ft / 10 m (AMSL)
Location 58.424690° -135.708964°
Runways 2
Magnetic Variation 18.923° E
Sunrise 2018-05-22 12:22:57 UTC / 2018-05-22 04:22:57 Local
Sunset 2018-05-23 05:38:59 UTC / 2018-05-22 21:38:59 Local
Advertisement - Login to hide

Runways

ID Width Length Bearing (true) Bearing (mag) Surface Threshold Offset Overrun Length
02 60 ft / 18 m 3,003 ft / 915 m 40.96° 22.04° Asphalt 0 ft / 0 m 0 ft / 0 m
11 150 ft / 46 m 6,704 ft / 2,044 m 135.06° 116.14° Asphalt 0 ft / 0 m 0 ft / 0 m
20 60 ft / 18 m 3,003 ft / 915 m 220.97° 202.05° Asphalt 0 ft / 0 m 0 ft / 0 m
29 150 ft / 46 m 6,704 ft / 2,044 m 315.08° 296.16° Asphalt 0 ft / 0 m 0 ft / 0 m

Map

Weather


0- 5 10 15 20 25 30 35+ Temperature / ° C

Clouds and Precipitation
Forecast for 2018-05-23 06:00 UTC. Updated 30 minutes ago

Ground ~20,000 ft ~40,000 ft Winds

METAR

PAGS 230256Z AUTO 02004KT 10SM -RA OVC044 08/07 A2995 RMK AO2 RAB08 SLP141 P0009 60011 T00830072 53010

TAF

TAF PAGS 222329Z 2300/2324 15008KT P6SM -SHRA SCT020 OVC040 TEMPO 2300/2304 6SM -SHRA BR BKN020 OVC030 FM230500 13003KT P6SM VCSH SCT020 BKN035 OVC050 FM231800 VRB05KT P6SM SCT035 BKN050 AMD LTD TO CLD VIS AND WIND

Frequencies

Recorded 125.90 MHz AWOS 3
Unicom 122.50 MHz CTAF
Warning: Do not use this data for real-world aviation or navigation. No guarantee of current accuracy is given.